Time;durP1;ratioP1;P1;durP2;ratioP2;P2;SDS_P1;SDS_P2;PMS_P1;PMS_P2;Temp;Humidity;BMP_temperature;BMP_pressure;BME280_temperature;BME280_humidity;BME280_pressure;Samples;Min_cycle;Max_cycle;Signal;HPM_P1;HPM_P2
2021/10/15 00:00:18;;;;;;;1.40;1.30;;;;;18.60;100670.00;;;;2088291;28;20295;-55
2021/10/15 00:01:18;;;;;;;1.50;1.40;;;;;18.60;100665.00;;;;2086835;28;20213;-55
2021/10/15 00:02:19;;;;;;;1.80;1.47;;;;;18.60;100665.00;;;;2088410;28;20243;-53
2021/10/15 00:03:19;;;;;;;1.30;1.13;;;;;18.60;100659.00;;;;2088565;28;20228;-55
2021/10/15 00:04:19;;;;;;;1.27;1.17;;;;;18.60;100663.00;;;;2087852;28;20732;-55
2021/10/15 00:05:20;;;;;;;1.53;1.43;;;;;18.60;100670.00;;;;2086516;28;20205;-54
2021/10/15 00:06:20;;;;;;;1.63;1.53;;;;;18.50;100659.00;;;;2080144;28;20197;-56
2021/10/15 00:07:20;;;;;;;1.10;1.00;;;;;18.60;100655.00;;;;2080258;28;20206;-55
2021/10/15 00:08:21;;;;;;;1.17;1.07;;;;;18.60;100658.00;;;;2080170;28;20209;-55
2021/10/15 00:09:21;;;;;;;1.37;1.20;;;;;18.60;100655.00;;;;2079924;28;20349;-54
2021/10/15 00:10:21;;;;;;;1.30;1.20;;;;;18.60;100659.00;;;;2080114;28;20209;-54
2021/10/15 00:11:22;;;;;;;1.40;1.30;;;;;18.60;100659.00;;;;2080140;28;20206;-54
2021/10/15 00:12:22;;;;;;;1.27;1.17;;;;;18.60;100655.00;;;;2080185;28;20206;-54
2021/10/15 00:13:23;;;;;;;1.50;1.40;;;;;18.60;100656.00;;;;2080276;28;20297;-56
2021/10/15 00:14:23;;;;;;;1.33;1.10;;;;;18.60;100667.00;;;;2085762;28;20201;-55
2021/10/15 00:15:23;;;;;;;1.30;1.20;;;;;18.60;100661.00;;;;2086709;28;20205;-56
2021/10/15 00:16:24;;;;;;;1.43;1.20;;;;;18.60;100670.00;;;;2083403;28;20201;-55
2021/10/15 00:17:24;;;;;;;1.50;1.40;;;;;18.60;100671.00;;;;2083448;28;20213;-55
2021/10/15 00:18:24;;;;;;;2.60;1.67;;;;;18.60;100661.00;;;;2082879;28;20709;-55
2021/10/15 00:19:25;;;;;;;1.50;1.40;;;;;18.60;100655.00;;;;2079914;28;21199;-55
2021/10/15 00:20:25;;;;;;;1.50;1.40;;;;;18.60;100662.00;;;;2080288;28;20221;-56
2021/10/15 00:21:25;;;;;;;1.40;1.23;;;;;18.60;100661.00;;;;2088082;28;20312;-53
2021/10/15 00:22:26;;;;;;;1.20;1.10;;;;;18.60;100654.00;;;;2088505;28;20216;-53
2021/10/15 00:23:26;;;;;;;1.20;1.10;;;;;18.60;100658.00;;;;2088407;28;20263;-55
2021/10/15 00:24:26;;;;;;;1.47;1.37;;;;;18.50;100655.00;;;;2088499;28;20216;-54
2021/10/15 00:25:27;;;;;;;1.53;1.20;;;;;18.50;100653.00;;;;2079494;28;20209;-54
2021/10/15 00:26:27;;;;;;;1.27;1.17;;;;;18.50;100657.00;;;;2084741;28;20210;-54
2021/10/15 00:27:27;;;;;;;1.40;1.30;;;;;18.50;100655.00;;;;2079407;28;20305;-55
2021/10/15 00:28:28;;;;;;;3.43;1.30;;;;;18.50;100658.00;;;;2083600;28;20274;-55
2021/10/15 00:29:28;;;;;;;1.20;1.10;;;;;18.50;100653.00;;;;2087992;28;20244;-55
2021/10/15 00:30:28;;;;;;;1.60;1.50;;;;;18.50;100650.00;;;;2088409;28;20209;-53
2021/10/15 00:31:29;;;;;;;1.50;1.40;;;;;18.60;100646.00;;;;2088308;28;20239;-54
2021/10/15 00:32:29;;;;;;;1.60;1.37;;;;;18.50;100648.00;;;;2087982;28;20712;-55
2021/10/15 00:33:29;;;;;;;1.50;1.40;;;;;18.60;100641.00;;;;2088271;28;20590;-56
2021/10/15 00:34:30;;;;;;;1.17;1.07;;;;;18.50;100645.00;;;;2088334;28;20702;-56
2021/10/15 00:35:30;;;;;;;1.20;1.10;;;;;18.60;100638.00;;;;2088359;28;20751;-57
2021/10/15 00:36:31;;;;;;;1.50;1.40;;;;;18.60;100647.00;;;;2087582;28;20211;-54
2021/10/15 00:37:31;;;;;;;1.57;1.30;;;;;18.60;100637.00;;;;2087610;28;20201;-55
2021/10/15 00:38:31;;;;;;;1.40;1.30;;;;;18.60;100634.00;;;;2088057;28;20213;-55
2021/10/15 00:39:32;;;;;;;1.53;1.37;;;;;18.60;100631.00;;;;2087785;28;20582;-55
2021/10/15 00:40:32;;;;;;;1.37;1.27;;;;;18.60;100627.00;;;;2088272;28;20299;-56
2021/10/15 00:41:32;;;;;;;1.47;1.37;;;;;18.60;100628.00;;;;2088262;28;20694;-54
2021/10/15 00:42:36;;;;;;;1.43;1.27;;;;;18.50;100623.00;;;;2088222;28;20585;-54
2021/10/15 00:43:36;;;;;;;1.45;1.30;;;;;18.60;100625.00;;;;2085357;28;20236;-56
2021/10/15 00:44:37;;;;;;;1.30;1.20;;;;;18.50;100614.00;;;;2080029;28;20217;-54
2021/10/15 00:45:38;;;;;;;1.50;1.33;;;;;18.50;100613.00;;;;2087649;28;20711;-54
2021/10/15 00:46:39;;;;;;;1.60;1.40;;;;;18.50;100621.00;;;;2083560;28;20218;-54
2021/10/15 00:47:39;;;;;;;1.50;1.40;;;;;18.60;100608.00;;;;2079946;28;20259;-53
2021/10/15 00:48:40;;;;;;;1.67;1.30;;;;;18.50;100615.00;;;;2082595;28;20665;-56
2021/10/15 00:49:40;;;;;;;1.53;1.43;;;;;18.60;100608.00;;;;2079683;28;20220;-54
2021/10/15 00:50:43;;;;;;;1.43;1.33;;;;;18.60;100616.00;;;;2080048;28;20221;-55
2021/10/15 00:51:44;;;;;;;1.35;1.17;;;;;18.60;100616.00;;;;2079586;28;20241;-54
2021/10/15 00:52:44;;;;;;;1.70;1.37;;;;;18.60;100614.00;;;;2080122;28;20213;-55
2021/10/15 00:53:45;;;;;;;1.20;1.10;;;;;18.60;100618.00;;;;2079848;28;20460;-56
2021/10/15 00:54:46;;;;;;;1.70;1.30;;;;;18.60;100614.00;;;;2080045;28;20222;-56
2021/10/15 00:55:47;;;;;;;1.40;1.30;;;;;18.60;100608.00;;;;2079203;28;20263;-55
2021/10/15 00:56:47;;;;;;;1.27;1.17;;;;;18.60;100602.00;;;;2079348;28;20619;-56
2021/10/15 00:57:47;;;;;;;1.40;1.20;;;;;18.60;100608.00;;;;2079380;28;20214;-53
2021/10/15 00:58:48;;;;;;;1.43;1.33;;;;;18.60;100607.00;;;;2081410;28;20354;-54
2021/10/15 00:59:48;;;;;;;1.20;1.10;;;;;18.50;100605.00;;;;2088101;28;20239;-54
2021/10/15 01:00:49;;;;;;;1.50;1.40;;;;;18.50;100600.00;;;;2086805;28;20217;-55
2021/10/15 01:01:49;;;;;;;1.30;1.20;;;;;18.60;100606.00;;;;2086908;28;20244;-56
2021/10/15 01:02:49;;;;;;;1.20;1.10;;;;;18.50;100604.00;;;;2087684;28;20694;-56
2021/10/15 01:03:50;;;;;;;1.53;1.33;;;;;18.50;100603.00;;;;2087496;28;20626;-53
2021/10/15 01:04:50;;;;;;;1.73;1.63;;;;;18.50;100596.00;;;;2087567;28;20216;-55
2021/10/15 01:05:50;;;;;;;1.37;1.27;;;;;18.50;100594.00;;;;2086888;28;20219;-55
2021/10/15 01:06:51;;;;;;;1.10;1.00;;;;;18.60;100602.00;;;;2084938;28;20748;-55
2021/10/15 01:07:53;;;;;;;1.40;1.30;;;;;18.60;100602.00;;;;2078728;28;20822;-55
2021/10/15 01:08:53;;;;;;;1.30;1.00;;;;;18.60;100597.00;;;;2077905;28;20228;-55
2021/10/15 01:09:53;;;;;;;1.43;1.33;;;;;18.60;100595.00;;;;2079183;28;20220;-55
2021/10/15 01:10:54;;;;;;;1.20;1.10;;;;;18.60;100593.00;;;;2075946;28;20629;-59
2021/10/15 01:11:55;;;;;;;1.20;1.10;;;;;18.60;100602.00;;;;2078343;28;20201;-58
2021/10/15 01:12:56;;;;;;;1.20;1.10;;;;;18.60;100590.00;;;;2080355;28;21139;-54
2021/10/15 01:13:56;;;;;;;1.30;1.20;;;;;18.60;100591.00;;;;2086950;28;20213;-54
2021/10/15 01:14:56;;;;;;;1.40;1.30;;;;;18.60;100590.00;;;;2079714;28;20225;-54
2021/10/15 01:16:04;;;;;;;1.30;1.20;;;;;18.50;100580.00;;;;2081844;28;20335;-54
2021/10/15 01:17:04;;;;;;;0.90;0.90;;;;;18.60;100581.00;;;;2082092;28;20751;-54
2021/10/15 01:18:12;;;;;;;1.50;1.40;;;;;18.60;100579.00;;;;2079647;28;20329;-55
2021/10/15 01:19:12;;;;;;;1.20;1.10;;;;;18.60;100577.00;;;;2085054;28;20241;-54
2021/10/15 01:20:12;;;;;;;1.33;1.23;;;;;18.60;100592.00;;;;2087223;28;20201;-56
2021/10/15 01:21:13;;;;;;;1.70;1.50;;;;;18.60;100578.00;;;;2087497;28;20209;-55
2021/10/15 01:22:13;;;;;;;1.70;1.60;;;;;18.60;100575.00;;;;2087502;28;20209;-55
2021/10/15 01:23:14;;;;;;;1.27;1.10;;;;;18.60;100568.00;;;;2087444;28;20212;-54
2021/10/15 01:24:14;;;;;;;1.40;1.30;;;;;18.60;100573.00;;;;2087206;28;20209;-55
2021/10/15 01:25:14;;;;;;;1.20;1.10;;;;;18.60;100570.00;;;;2087461;28;20221;-55
2021/10/15 01:26:15;;;;;;;2.27;1.40;;;;;18.60;100570.00;;;;2086523;28;20753;-55
2021/10/15 01:27:15;;;;;;;1.47;1.30;;;;;18.50;100565.00;;;;2086629;28;20648;-55
2021/10/15 01:28:15;;;;;;;1.87;1.70;;;;;18.50;100565.00;;;;2087296;28;20649;-56
2021/10/15 01:29:16;;;;;;;1.90;1.47;;;;;18.50;100563.00;;;;2087396;28;20410;-54
2021/10/15 01:30:16;;;;;;;1.43;1.30;;;;;18.50;100567.00;;;;2087046;28;20265;-54
2021/10/15 01:31:16;;;;;;;1.20;1.10;;;;;18.60;100567.00;;;;2086443;28;20232;-53
2021/10/15 01:32:17;;;;;;;1.47;1.37;;;;;18.60;100572.00;;;;2086630;28;20228;-55
2021/10/15 01:33:18;;;;;;;1.33;1.23;;;;;18.50;100560.00;;;;2086990;28;20231;-55
2021/10/15 01:34:18;;;;;;;1.40;1.30;;;;;18.60;100561.00;;;;2080505;28;20282;-55
2021/10/15 01:35:18;;;;;;;1.50;1.40;;;;;18.60;100567.00;;;;2094772;28;20212;-56
2021/10/15 01:36:19;;;;;;;1.50;1.20;;;;;18.60;100565.00;;;;2092339;28;20223;-55
2021/10/15 01:37:19;;;;;;;1.50;1.30;;;;;18.60;100567.00;;;;2087507;28;20295;-54
2021/10/15 01:38:19;;;;;;;1.30;1.20;;;;;18.60;100559.00;;;;2087186;28;20217;-55
2021/10/15 01:39:20;;;;;;;1.40;1.30;;;;;18.60;100560.00;;;;2086203;28;20217;-55
2021/10/15 01:40:20;;;;;;;1.43;1.33;;;;;18.60;100555.00;;;;2087397;28;20796;-55
2021/10/15 01:41:21;;;;;;;1.87;1.30;;;;;18.60;100562.00;;;;2082821;28;20305;-55
2021/10/15 01:43:40;;;;;;;1.40;1.13;;;;;18.50;100563.00;;;;2079519;28;20209;-56
2021/10/15 01:44:41;;;;;;;1.57;1.47;;;;;18.60;100546.00;;;;2079618;28;20202;-55
2021/10/15 01:45:41;;;;;;;1.40;1.30;;;;;18.50;100554.00;;;;2083710;28;20198;-54
2021/10/15 01:46:41;;;;;;;1.10;1.00;;;;;18.60;100553.00;;;;2083555;28;20198;-54
2021/10/15 01:47:42;;;;;;;1.30;1.20;;;;;18.60;100547.00;;;;2081762;28;20206;-53
2021/10/15 01:48:42;;;;;;;1.43;1.33;;;;;18.60;100581.00;;;;2081002;28;20213;-54
2021/10/15 01:49:43;;;;;;;1.53;1.40;;;;;18.60;100546.00;;;;2078546;28;20236;-54
2021/10/15 01:50:43;;;;;;;1.60;1.40;;;;;18.60;100555.00;;;;2078850;28;20201;-56
2021/10/15 01:51:44;;;;;;;1.40;1.30;;;;;18.50;100554.00;;;;2078941;28;20252;-54
2021/10/15 01:52:44;;;;;;;1.30;1.20;;;;;18.50;100541.00;;;;2079040;28;20201;-55
2021/10/15 01:53:45;;;;;;;1.30;1.20;;;;;18.50;100543.00;;;;2082799;28;20212;-55
2021/10/15 01:54:45;;;;;;;1.43;1.33;;;;;18.40;100539.00;;;;2081728;28;20686;-55
2021/10/15 01:55:46;;;;;;;1.50;1.40;;;;;18.50;100548.00;;;;2079036;28;20296;-55
2021/10/15 01:56:46;;;;;;;1.33;1.10;;;;;18.50;100540.00;;;;2078709;28;20675;-54
2021/10/15 01:57:47;;;;;;;1.40;1.30;;;;;18.60;100544.00;;;;2078806;28;20264;-54
2021/10/15 01:58:47;;;;;;;1.60;1.50;;;;;18.60;100546.00;;;;2078840;28;20221;-54
2021/10/15 01:59:47;;;;;;;1.30;1.20;;;;;18.50;100548.00;;;;2079052;28;20296;-55
2021/10/15 02:00:48;;;;;;;1.77;1.27;;;;;18.60;100544.00;;;;2078746;28;20694;-54
2021/10/15 02:01:48;;;;;;;1.73;1.57;;;;;18.50;100538.00;;;;2078842;28;20674;-54
2021/10/15 02:02:48;;;;;;;1.47;1.37;;;;;18.50;100539.00;;;;2079067;28;20217;-55
2021/10/15 02:03:49;;;;;;;1.50;1.40;;;;;18.50;100541.00;;;;2078418;28;20213;-55
2021/10/15 02:04:49;;;;;;;1.50;1.40;;;;;18.50;100536.00;;;;2078986;28;20279;-54
2021/10/15 02:05:49;;;;;;;1.20;1.10;;;;;18.50;100538.00;;;;2081107;28;20309;-55
2021/10/15 02:06:50;;;;;;;1.47;1.30;;;;;18.60;100536.00;;;;2087566;28;20263;-55
2021/10/15 02:07:50;;;;;;;1.87;1.60;;;;;18.60;100539.00;;;;2087615;28;20220;-55
2021/10/15 02:08:50;;;;;;;1.43;1.33;;;;;18.60;100532.00;;;;2087134;28;20243;-56
2021/10/15 02:09:51;;;;;;;1.30;1.20;;;;;18.60;100527.00;;;;2080071;28;20216;-55
2021/10/15 02:10:51;;;;;;;1.17;1.00;;;;;18.60;100531.00;;;;2079420;28;20581;-55
2021/10/15 02:11:52;;;;;;;1.37;1.27;;;;;18.60;100533.00;;;;2079395;28;20299;-55
2021/10/15 02:12:52;;;;;;;1.50;1.33;;;;;18.60;100540.00;;;;2079516;28;20248;-54
2021/10/15 02:13:52;;;;;;;1.50;1.40;;;;;18.50;100526.00;;;;2079170;28;20244;-54
2021/10/15 02:14:53;;;;;;;1.40;1.30;;;;;18.60;100531.00;;;;2079394;28;20217;-55
2021/10/15 02:15:53;;;;;;;1.40;1.30;;;;;18.60;100525.00;;;;2080858;28;20214;-54
2021/10/15 02:16:53;;;;;;;1.57;1.47;;;;;18.50;100527.00;;;;2087470;28;20208;-56
2021/10/15 02:17:54;;;;;;;1.47;1.30;;;;;18.60;100518.00;;;;2082075;28;20217;-55
2021/10/15 02:18:54;;;;;;;1.30;1.20;;;;;18.60;100526.00;;;;2079436;28;20471;-53
2021/10/15 02:19:54;;;;;;;1.43;1.33;;;;;18.60;100520.00;;;;2078930;28;20214;-53
2021/10/15 02:20:55;;;;;;;1.40;1.30;;;;;18.60;100530.00;;;;2079392;28;20233;-54
2021/10/15 02:21:55;;;;;;;1.47;1.37;;;;;18.60;100523.00;;;;2080277;28;20221;-54
2021/10/15 02:22:56;;;;;;;1.43;1.33;;;;;18.60;100531.00;;;;2087509;28;20213;-55
2021/10/15 02:23:56;;;;;;;1.50;1.13;;;;;18.60;100522.00;;;;2087504;28;20651;-55
2021/10/15 02:24:56;;;;;;;1.53;1.33;;;;;18.60;100529.00;;;;2087309;28;20635;-54
2021/10/15 02:25:57;;;;;;;2.30;1.53;;;;;18.60;100521.00;;;;2087513;28;20220;-53
2021/10/15 02:26:57;;;;;;;1.20;1.10;;;;;18.60;100518.00;;;;2080249;28;20304;-54
2021/10/15 02:27:57;;;;;;;1.43;1.33;;;;;18.60;100512.00;;;;2079238;28;20220;-55
2021/10/15 02:28:58;;;;;;;1.37;1.27;;;;;18.50;100510.00;;;;2078750;28;20267;-53
2021/10/15 02:29:58;;;;;;;2.90;1.67;;;;;18.50;100510.00;;;;2078434;28;20213;-54
2021/10/15 02:30:58;;;;;;;2.13;1.33;;;;;18.60;100516.00;;;;2078368;28;20220;-56
2021/10/15 02:31:59;;;;;;;1.57;1.47;;;;;18.50;100509.00;;;;2078383;28;20221;-54
2021/10/15 02:32:59;;;;;;;1.63;1.53;;;;;18.60;100511.00;;;;2078453;28;20225;-54
2021/10/15 02:33:59;;;;;;;1.83;1.20;;;;;18.60;100504.00;;;;2079218;28;20209;-55
2021/10/15 02:35:00;;;;;;;1.50;1.40;;;;;18.60;100502.00;;;;2086254;28;20777;-56
2021/10/15 02:36:00;;;;;;;1.37;1.20;;;;;18.60;100507.00;;;;2087240;28;20275;-55
2021/10/15 02:37:00;;;;;;;2.10;1.23;;;;;18.60;100503.00;;;;2083291;28;20685;-55
2021/10/15 02:38:01;;;;;;;2.33;1.40;;;;;18.60;100499.00;;;;2078082;28;20282;-55
2021/10/15 02:39:01;;;;;;;1.57;1.30;;;;;18.60;100491.00;;;;2077482;28;20264;-54
2021/10/15 02:40:02;;;;;;;3.60;1.70;;;;;18.50;100491.00;;;;2078782;28;20241;-55
2021/10/15 02:41:03;;;;;;;1.60;1.50;;;;;18.50;100490.00;;;;2080218;28;20309;-55
2021/10/15 02:42:03;;;;;;;1.27;1.17;;;;;18.50;100500.00;;;;2087012;28;20213;-54
2021/10/15 02:43:03;;;;;;;1.77;1.50;;;;;18.60;100500.00;;;;2083098;28;20217;-55
2021/10/15 02:44:05;;;;;;;1.43;1.33;;;;;18.60;100491.00;;;;2083919;28;20549;-55
2021/10/15 02:45:06;;;;;;;1.30;1.20;;;;;18.60;100484.00;;;;2078708;28;20213;-55
2021/10/15 02:46:06;;;;;;;1.27;1.17;;;;;18.60;100486.00;;;;2082367;28;20311;-55
2021/10/15 02:47:07;;;;;;;1.63;1.30;;;;;18.50;100448.00;;;;2081301;28;20577;-55
2021/10/15 02:48:07;;;;;;;1.93;1.37;;;;;18.60;100486.00;;;;2081003;28;20590;-58
2021/10/15 02:49:08;;;;;;;1.73;1.30;;;;;18.60;100484.00;;;;2078642;28;20209;-55
2021/10/15 02:50:08;;;;;;;1.30;1.20;;;;;18.50;100480.00;;;;2079158;28;20553;-55
2021/10/15 02:51:09;;;;;;;1.40;1.30;;;;;18.50;100481.00;;;;2079079;28;20294;-55
2021/10/15 02:52:10;;;;;;;1.60;1.50;;;;;18.50;100486.00;;;;2078915;28;20209;-54
2021/10/15 02:53:10;;;;;;;1.43;1.33;;;;;18.60;100484.00;;;;2082929;28;20220;-56
2021/10/15 02:54:11;;;;;;;1.40;1.30;;;;;18.50;100477.00;;;;2087008;28;20564;-55
2021/10/15 02:55:11;;;;;;;1.37;1.27;;;;;18.60;100485.00;;;;2087428;28;20212;-55
2021/10/15 02:56:11;;;;;;;1.40;1.30;;;;;18.60;100480.00;;;;2087282;28;20208;-54
2021/10/15 02:57:12;;;;;;;1.30;1.13;;;;;18.50;100482.00;;;;2087187;28;20339;-54
2021/10/15 02:58:12;;;;;;;1.20;1.10;;;;;18.60;100485.00;;;;2087440;28;20224;-55
2021/10/15 02:59:12;;;;;;;1.40;1.30;;;;;18.50;100479.00;;;;2086933;28;20217;-56
2021/10/15 03:00:13;;;;;;;1.40;1.20;;;;;18.50;100476.00;;;;2080596;28;20874;-55
2021/10/15 03:01:13;;;;;;;1.63;1.20;;;;;18.50;100476.00;;;;2079133;28;20581;-55
2021/10/15 03:02:14;;;;;;;1.30;1.20;;;;;18.50;100469.00;;;;2078840;28;20850;-54
2021/10/15 03:03:14;;;;;;;1.47;1.20;;;;;18.50;100471.00;;;;2083450;28;20369;-54
2021/10/15 03:04:14;;;;;;;1.37;1.27;;;;;18.50;100454.00;;;;2087362;28;20264;-55
2021/10/15 03:05:15;;;;;;;2.20;1.43;;;;;18.50;100462.00;;;;2087364;28;20896;-55
2021/10/15 03:06:15;;;;;;;1.53;1.43;;;;;18.50;100467.00;;;;2087209;28;20595;-55
2021/10/15 03:07:16;;;;;;;1.50;1.40;;;;;18.50;100468.00;;;;2085036;28;20384;-54
2021/10/15 03:08:16;;;;;;;1.40;1.30;;;;;18.50;100464.00;;;;2079054;28;20309;-54
2021/10/15 03:09:16;;;;;;;2.33;1.50;;;;;18.50;100460.00;;;;2081665;28;20335;-55
2021/10/15 03:10:17;;;;;;;1.50;1.20;;;;;18.50;100462.00;;;;2087396;28;20995;-55
2021/10/15 03:11:17;;;;;;;2.17;1.30;;;;;18.60;100460.00;;;;2086779;28;20916;-54
2021/10/15 03:12:17;;;;;;;1.60;1.50;;;;;18.60;100460.00;;;;2086833;28;20577;-54
2021/10/15 03:13:18;;;;;;;1.67;1.57;;;;;18.40;100459.00;;;;2078715;28;20217;-53
2021/10/15 03:14:18;;;;;;;1.33;1.20;;;;;18.50;100458.00;;;;2079085;28;20217;-53
2021/10/15 03:15:18;;;;;;;1.60;1.50;;;;;18.60;100454.00;;;;2079089;28;20288;-54
2021/10/15 03:16:19;;;;;;;1.50;1.40;;;;;18.60;100459.00;;;;2084154;28;20239;-55
2021/10/15 03:17:19;;;;;;;1.47;1.37;;;;;18.50;100458.00;;;;2083238;28;20209;-55
2021/10/15 03:18:19;;;;;;;1.57;1.43;;;;;18.50;100462.00;;;;2082702;28;20224;-55
2021/10/15 03:19:20;;;;;;;1.40;1.27;;;;;18.50;100462.00;;;;2080310;28;20573;-55
2021/10/15 03:20:20;;;;;;;1.40;1.30;;;;;18.60;100452.00;;;;2079035;28;20274;-54
2021/10/15 03:21:21;;;;;;;1.40;1.30;;;;;18.50;100460.00;;;;2081077;28;20213;-55
2021/10/15 03:22:21;;;;;;;1.67;1.57;;;;;18.60;100446.00;;;;2088885;28;20213;-55
2021/10/15 03:23:21;;;;;;;1.70;1.40;;;;;18.60;100447.00;;;;2083577;28;20210;-54
2021/10/15 03:24:22;;;;;;;1.30;1.20;;;;;18.60;100445.00;;;;2080609;28;20296;-55
2021/10/15 03:25:22;;;;;;;1.80;1.50;;;;;18.50;100445.00;;;;2086817;28;20753;-55
2021/10/15 03:26:23;;;;;;;1.57;1.30;;;;;18.60;100438.00;;;;2088812;28;20685;-54
2021/10/15 03:27:23;;;;;;;1.23;1.13;;;;;18.50;100440.00;;;;2084277;28;20597;-53
2021/10/15 03:28:24;;;;;;;1.50;1.40;;;;;18.50;100448.00;;;;2079985;28;20205;-54
2021/10/15 03:29:24;;;;;;;1.77;1.50;;;;;18.50;100432.00;;;;2079003;28;20490;-56
2021/10/15 03:30:25;;;;;;;1.40;1.30;;;;;18.50;100447.00;;;;2080640;28;20218;-54
2021/10/15 03:31:25;;;;;;;1.60;1.50;;;;;18.50;100442.00;;;;2085606;28;20601;-55
2021/10/15 03:32:26;;;;;;;1.17;1.07;;;;;18.60;100438.00;;;;2083180;28;20311;-55
2021/10/15 03:33:26;;;;;;;1.90;1.50;;;;;18.60;100433.00;;;;2080611;28;20217;-55
2021/10/15 03:34:26;;;;;;;1.10;1.00;;;;;18.60;100440.00;;;;2080466;28;20248;-54
2021/10/15 03:35:27;;;;;;;1.30;1.13;;;;;18.60;100440.00;;;;2080566;28;20210;-53
2021/10/15 03:36:27;;;;;;;1.40;1.20;;;;;18.60;100441.00;;;;2080566;28;20714;-55
2021/10/15 03:37:27;;;;;;;1.30;1.20;;;;;18.50;100430.00;;;;2080440;28;20314;-55
2021/10/15 03:38:28;;;;;;;1.53;1.43;;;;;18.60;100435.00;;;;2084737;28;20217;-54
2021/10/15 03:39:28;;;;;;;1.50;1.40;;;;;18.60;100430.00;;;;2083444;28;20210;-55
2021/10/15 03:40:28;;;;;;;1.40;1.30;;;;;18.60;100435.00;;;;2081705;28;20213;-55
2021/10/15 03:41:29;;;;;;;1.40;1.20;;;;;18.60;100431.00;;;;2087500;28;20208;-54
2021/10/15 03:42:29;;;;;;;1.43;1.30;;;;;18.60;100441.00;;;;2088579;28;20251;-54
2021/10/15 03:43:29;;;;;;;1.77;1.30;;;;;18.50;100436.00;;;;2086169;28;20209;-54
2021/10/15 03:44:30;;;;;;;1.37;1.00;;;;;18.60;100438.00;;;;2080567;28;20312;-55
2021/10/15 03:45:30;;;;;;;1.40;1.30;;;;;18.50;100434.00;;;;2080355;28;20219;-56
2021/10/15 03:46:31;;;;;;;1.27;1.17;;;;;18.60;100434.00;;;;2083361;28;20717;-55
2021/10/15 03:47:32;;;;;;;1.40;1.00;;;;;18.50;100432.00;;;;2082998;28;20714;-54
2021/10/15 03:48:32;;;;;;;1.45;1.35;;;;;18.50;100438.00;;;;2082553;28;20574;-55
2021/10/15 03:49:32;;;;;;;1.77;1.23;;;;;18.50;100439.00;;;;2080112;28;20235;-56
2021/10/15 03:50:33;;;;;;;1.40;1.30;;;;;18.50;100440.00;;;;2080316;28;20718;-55
2021/10/15 03:51:33;;;;;;;1.60;1.50;;;;;18.50;100430.00;;;;2080421;28;20335;-53
2021/10/15 03:52:34;;;;;;;1.33;1.20;;;;;18.50;100434.00;;;;2087404;28;20262;-54
2021/10/15 03:53:34;;;;;;;1.30;1.20;;;;;18.60;100431.00;;;;2088757;28;20247;-54
2021/10/15 03:54:35;;;;;;;1.50;1.40;;;;;18.60;100429.00;;;;2081068;28;20861;-54
2021/10/15 03:55:35;;;;;;;1.20;1.10;;;;;18.60;100426.00;;;;2080258;28;20217;-54
2021/10/15 03:56:36;;;;;;;2.23;1.70;;;;;18.60;100427.00;;;;2080378;28;20205;-53
2021/10/15 03:57:36;;;;;;;1.30;1.20;;;;;18.60;100439.00;;;;2080552;28;20299;-55
2021/10/15 03:58:36;;;;;;;1.60;1.50;;;;;18.50;100436.00;;;;2080499;28;20694;-60
2021/10/15 03:59:37;;;;;;;1.53;1.43;;;;;18.50;100436.00;;;;2085977;28;20949;-55
2021/10/15 04:00:37;;;;;;;1.67;1.33;;;;;18.50;100427.00;;;;2085926;28;20224;-54
2021/10/15 04:01:37;;;;;;;1.70;1.60;;;;;18.50;100419.00;;;;2083168;28;20304;-54
2021/10/15 04:02:44;;;;;;;1.70;1.60;;;;;18.60;100428.00;;;;2088743;28;20288;-54
2021/10/15 04:03:44;;;;;;;2.25;1.05;;;;;18.60;100429.00;;;;2088628;28;20288;-54
2021/10/15 04:04:45;;;;;;;1.60;1.50;;;;;18.60;100424.00;;;;2083419;28;20249;-53
2021/10/15 04:05:45;;;;;;;1.30;1.10;;;;;18.50;100426.00;;;;2080305;28;20224;-56
2021/10/15 04:06:46;;;;;;;1.70;1.60;;;;;18.50;100420.00;;;;2082518;28;21358;-54
2021/10/15 04:07:46;;;;;;;2.30;1.50;;;;;18.60;100425.00;;;;2088571;28;20221;-55
2021/10/15 04:08:46;;;;;;;2.03;1.20;;;;;18.50;100416.00;;;;2088188;28;20216;-56
2021/10/15 04:09:47;;;;;;;1.33;1.23;;;;;18.50;100413.00;;;;2088290;28;20231;-56
2021/10/15 04:10:47;;;;;;;1.70;1.07;;;;;18.60;100418.00;;;;2088441;28;20213;-54
2021/10/15 04:11:47;;;;;;;1.63;1.23;;;;;18.60;100425.00;;;;2088432;28;20232;-54
2021/10/15 04:12:48;;;;;;;1.40;1.27;;;;;18.50;100419.00;;;;2084609;28;20228;-53
2021/10/15 04:13:48;;;;;;;1.27;1.17;;;;;18.50;100411.00;;;;2088494;28;20224;-53
2021/10/15 04:14:48;;;;;;;1.30;1.20;;;;;18.50;100420.00;;;;2088461;28;20220;-54
2021/10/15 04:15:49;;;;;;;1.17;1.07;;;;;18.50;100417.00;;;;2087185;28;20359;-56
2021/10/15 04:16:49;;;;;;;1.30;1.20;;;;;18.50;100427.00;;;;2083124;28;20216;-56
2021/10/15 04:17:50;;;;;;;1.40;1.30;;;;;18.50;100421.00;;;;2082093;28;20687;-57
2021/10/15 04:18:50;;;;;;;1.50;1.40;;;;;18.60;100424.00;;;;2080536;28;20210;-57
2021/10/15 04:19:50;;;;;;;1.40;1.30;;;;;18.60;100421.00;;;;2087902;28;20208;-53
2021/10/15 04:20:51;;;;;;;1.33;1.23;;;;;18.60;100417.00;;;;2088328;28;20216;-56
2021/10/15 04:21:51;;;;;;;1.70;1.60;;;;;18.50;100412.00;;;;2088422;28;20221;-55
2021/10/15 04:22:51;;;;;;;2.57;1.40;;;;;18.50;100403.00;;;;2088356;28;20205;-54
2021/10/15 04:23:52;;;;;;;1.53;1.27;;;;;18.50;100418.00;;;;2088559;28;20219;-56
2021/10/15 04:24:52;;;;;;;2.00;1.30;;;;;18.50;100408.00;;;;2088472;28;20252;-56
2021/10/15 04:25:52;;;;;;;1.37;1.27;;;;;18.50;100403.00;;;;2081725;28;20218;-53
2021/10/15 04:26:53;;;;;;;1.63;1.20;;;;;18.50;100403.00;;;;2079824;28;20221;-55
2021/10/15 04:27:53;;;;;;;1.40;1.30;;;;;18.50;100403.00;;;;2080124;28;20240;-54
2021/10/15 04:28:53;;;;;;;2.27;1.57;;;;;18.50;100405.00;;;;2079789;28;20217;-54
2021/10/15 04:29:54;;;;;;;1.57;1.20;;;;;18.60;100399.00;;;;2080756;28;20221;-55
2021/10/15 04:30:54;;;;;;;1.67;1.57;;;;;18.60;100386.00;;;;2087439;28;20217;-56
2021/10/15 04:31:55;;;;;;;1.30;1.20;;;;;18.50;100402.00;;;;2080119;28;20305;-54
2021/10/15 04:32:55;;;;;;;1.10;1.00;;;;;18.60;100399.00;;;;2080301;28;20376;-54
2021/10/15 04:33:55;;;;;;;1.47;1.37;;;;;18.60;100402.00;;;;2080019;28;20308;-56
2021/10/15 04:34:56;;;;;;;1.77;1.47;;;;;18.50;100394.00;;;;2087040;28;20274;-55
2021/10/15 04:35:56;;;;;;;1.53;1.43;;;;;18.50;100395.00;;;;2088448;28;20354;-55
2021/10/15 04:36:56;;;;;;;2.00;1.70;;;;;18.60;100393.00;;;;2088249;28;20269;-54
2021/10/15 04:37:57;;;;;;;1.80;1.47;;;;;18.60;100389.00;;;;2084045;28;20267;-54
2021/10/15 04:38:57;;;;;;;1.27;1.17;;;;;18.60;100394.00;;;;2080222;28;20220;-55
2021/10/15 04:39:57;;;;;;;1.20;0.97;;;;;18.50;100390.00;;;;2088344;28;20826;-55
2021/10/15 04:40:58;;;;;;;1.30;1.20;;;;;18.50;100391.00;;;;2086797;28;21055;-54
2021/10/15 04:41:58;;;;;;;1.50;1.40;;;;;18.60;100393.00;;;;2080135;28;20214;-54
2021/10/15 04:42:58;;;;;;;1.90;1.70;;;;;18.60;100394.00;;;;2080202;28;20213;-54
2021/10/15 04:43:59;;;;;;;1.70;1.60;;;;;18.60;100395.00;;;;2079799;28;20214;-55
2021/10/15 04:44:59;;;;;;;1.17;1.07;;;;;18.60;100395.00;;;;2080133;28;20224;-54
2021/10/15 04:45:59;;;;;;;1.73;1.40;;;;;18.50;100389.00;;;;2083773;28;20619;-55
2021/10/15 04:47:00;;;;;;;1.70;1.50;;;;;18.50;100381.00;;;;2082183;28;20343;-56
2021/10/15 04:48:00;;;;;;;1.40;1.30;;;;;18.50;100382.00;;;;2081752;28;20218;-55
2021/10/15 04:49:00;;;;;;;1.40;1.30;;;;;18.50;100395.00;;;;2079587;28;20259;-54
2021/10/15 04:50:01;;;;;;;1.50;1.40;;;;;18.50;100382.00;;;;2085495;28;20258;-55
2021/10/15 04:51:01;;;;;;;1.57;1.47;;;;;18.50;100387.00;;;;2088387;28;20232;-54
2021/10/15 04:52:02;;;;;;;1.70;1.60;;;;;18.50;100384.00;;;;2088193;28;20250;-55
2021/10/15 04:53:04;;;;;;;1.20;1.07;;;;;18.50;100379.00;;;;2088107;28;20243;-56
2021/10/15 04:54:04;;;;;;;1.60;1.50;;;;;18.50;100380.00;;;;2084628;28;20213;-55
2021/10/15 04:55:05;;;;;;;1.20;1.10;;;;;18.50;100376.00;;;;2079785;28;20288;-55
2021/10/15 04:56:05;;;;;;;1.23;1.13;;;;;18.50;100383.00;;;;2080894;28;20218;-55
2021/10/15 04:57:06;;;;;;;1.93;1.30;;;;;18.50;100381.00;;;;2088173;28;20531;-54
2021/10/15 04:58:06;;;;;;;1.40;1.30;;;;;18.50;100377.00;;;;2088108;28;20224;-54
2021/10/15 04:59:06;;;;;;;1.53;1.30;;;;;18.50;100384.00;;;;2087920;28;20217;-53
2021/10/15 05:00:09;;;;;;;1.40;1.30;;;;;18.50;100385.00;;;;2081450;28;20214;-54